首页
METAR-TAF:

METAR-TAF

机场 :

塔科马 / Fort Lewis, 华盛顿, 美国

纬度: 47-07N, 经度: 122-33W, 海拔: 92米

当前天气观测

该预报发布于1小时和5分钟前的10:58 UTC
风速10节,风向东转东南
温度 9°C
湿度 100%
气压 1003 hPa
能見度: 16.1公里
阴天层高于3800英尺
小雨

METAR: KGRF 181058Z 12010KT 10SM -RA OVC038 09/09 A2961 RMK AO2A SLP031 P0003 T00850085 $

时间: 04:03 (12:03 UTC)

预报

该预报发布于5小时和11分钟前的06:52 UTC
预报有效从18日的 06点(UTC)到 19日的 11点(UTC)
风速15节,风向东南,有时为20节阵风
能見度: 9000
多云层高于2500英尺
阴天层高于4000英尺
小雨
成为
从 18日的 09点(UTC)到 18日的 10点(UTC)
风速12节,风向南转南东,有时为18节阵风
能見度: 9000
多云层高于1000英尺
阴天层高于2500英尺
小雨
成为
从 18日的 16点(UTC)到 18日的 17点(UTC)
风速12节,风向南转西南
能见度10公里或以上
多云层高于3000英尺
阴天层高于4000英尺
小阵雨
成为
从 19日的 04点(UTC)到 19日的 05点(UTC)
风速12节,风向西南
能见度10公里或以上
多云层高于3000英尺

TAF: KGRF 180652Z 1806/1911 13015G20KT 9000 -RA BKN025 OVC040 620809 510009 QNH2961INS BECMG 1809/1810 15012G18KT 9000 -RA BKN010 OVC025 620809 510009 QNH2960INS BECMG 1816/1817 20012KT 9999 -SHRA BKN030 OVC040 610309 QNH2963INS BECMG 1904/1905 22012KT 9999 NSW BKN030 510009 QNH2979INS TX10/1900Z TN06/1817Z

超过4000个机场的气象观测和天气预报(METAR&TAF报告)。

可查询的气象台以黄色和红色小点在地图上表示。

将鼠标移到小点上方,可查看气象台名称。

然后点击查看天气观测和预报。

如需切换地图:点击带黑十字的绿色按钮放大地图;点击带横线的绿色按钮缩小地图;或者点击绿色箭头查看邻近地区的地图。


METAR-TAF: